JHW weather

Chautauqua County-Jamestown Airport
Jamestown, New York, United States

Public forecast

Using degrees Fahrenheit for public forecast. Weather courtesy of forecast.io.

METAR (pilot weather report)

Retrieved 2019/04/23 19:56 UTC (16 minutes ago):

KJHW 231956Z AUTO 20010KT 10SM OVC035 16/11 A2979 RMK AO2 SLP092 T01610111

TAF (pilot weather forecast)

Retrieved 2019/04/23 18:27 UTC (2 hours ago):

TAF KJHW 231725Z 2318/2418 20014G27KT 6SM -SHRA BR OVC050 FM232000 23013G21KT 6SM -SHRA BR OVC020 FM232300 27012G18KT P6SM OVC012 FM241100 29011G17KT P6SM BKN012 FM241300 29011G18KT P6SM SCT250